createdAt,value
2023-02-04T00:00:26.676Z,100.00
2023-02-04T00:02:54.136Z,100.00
2023-02-04T00:05:22.811Z,100.00
2023-02-04T00:07:50.666Z,100.00
2023-02-04T00:10:19.983Z,100.00
2023-02-04T00:12:50.548Z,100.00
2023-02-04T00:15:19.699Z,100.00
2023-02-04T00:17:49.738Z,100.00
2023-02-04T00:20:19.850Z,100.00
2023-02-04T00:22:53.185Z,100.00
2023-02-04T00:25:26.512Z,100.00
2023-02-04T00:27:54.826Z,100.00
2023-02-04T00:30:31.707Z,100.00
2023-02-04T00:33:00.334Z,100.00
2023-02-04T00:35:28.483Z,100.00
2023-02-04T00:37:56.734Z,100.00
2023-02-04T00:40:27.071Z,100.00
2023-02-04T00:42:55.179Z,100.00
2023-02-04T00:45:24.251Z,100.00
2023-02-04T00:47:52.786Z,100.00
2023-02-04T00:50:20.524Z,100.00
2023-02-04T00:52:53.965Z,100.00
2023-02-04T00:55:24.992Z,100.00
2023-02-04T00:57:54.480Z,100.00
2023-02-04T01:00:22.681Z,100.00
2023-02-04T01:02:50.160Z,100.00
2023-02-04T01:05:17.646Z,100.00
2023-02-04T01:07:51.889Z,100.00
2023-02-04T01:10:22.925Z,100.00
2023-02-04T01:12:52.930Z,100.00
2023-02-04T01:15:20.662Z,100.00
2023-02-04T01:17:50.969Z,100.00
2023-02-04T01:20:19.948Z,100.00
2023-02-04T01:22:49.378Z,100.00
2023-02-04T01:25:26.654Z,100.00
2023-02-04T01:27:57.109Z,100.00
2023-02-04T01:30:26.738Z,100.00
2023-02-04T01:33:02.354Z,100.00
2023-02-04T01:35:33.908Z,100.00
2023-02-04T01:38:11.546Z,100.00
2023-02-04T01:40:40.692Z,100.00
2023-02-04T01:43:10.898Z,100.00
2023-02-04T01:45:43.464Z,100.00
2023-02-04T01:48:20.577Z,100.00
2023-02-04T01:51:17.370Z,100.00
2023-02-04T01:53:45.390Z,100.00
2023-02-04T01:56:23.540Z,100.00
2023-02-04T01:59:01.304Z,100.00
2023-02-04T02:01:49.081Z,100.00
2023-02-04T02:04:33.925Z,100.00
2023-02-04T02:07:19.969Z,100.00
2023-02-04T02:09:47.360Z,100.00
2023-02-04T02:12:15.187Z,100.00
2023-02-04T02:14:43.719Z,100.00
2023-02-04T02:17:20.043Z,100.00
2023-02-04T02:19:48.927Z,100.00
2023-02-04T02:23:14.523Z,100.00
2023-02-04T02:25:42.651Z,100.00
2023-02-04T02:28:26.249Z,100.00
2023-02-04T02:30:55.228Z,100.00
2023-02-04T02:33:23.932Z,100.00
2023-02-04T02:35:52.768Z,100.00
2023-02-04T02:38:20.967Z,100.00
2023-02-04T02:40:57.974Z,100.00
2023-02-04T02:43:30.217Z,100.00
2023-02-04T02:46:02.732Z,100.00
2023-02-04T02:48:34.811Z,100.00
2023-02-04T02:51:04.746Z,100.00
2023-02-04T02:53:33.745Z,100.00
2023-02-04T02:56:09.146Z,100.00
2023-02-04T02:58:49.939Z,100.00
2023-02-04T03:01:18.999Z,100.00
2023-02-04T03:04:06.454Z,100.00
2023-02-04T03:06:36.082Z,100.00
2023-02-04T03:09:06.833Z,100.00
2023-02-04T03:11:36.517Z,100.00
2023-02-04T03:14:09.674Z,100.00
2023-02-04T03:16:41.214Z,100.00
2023-02-04T03:19:13.906Z,100.00
2023-02-04T03:21:43.110Z,100.00
2023-02-04T03:24:11.361Z,100.00
2023-02-04T03:26:41.212Z,100.00
2023-02-04T03:29:18.087Z,100.00
2023-02-04T03:31:54.640Z,100.00
2023-02-04T03:34:34.747Z,100.00
2023-02-04T03:39:50.729Z,100.00
2023-02-04T03:42:19.431Z,100.00
2023-02-04T03:44:52.689Z,100.00
2023-02-04T03:47:28.208Z,100.00
2023-02-04T03:50:06.739Z,100.00
2023-02-04T03:52:36.211Z,100.00
2023-02-04T03:55:06.532Z,100.00
2023-02-04T03:57:36.520Z,100.00
2023-02-04T04:00:09.399Z,100.00
2023-02-04T04:02:44.941Z,100.00
2023-02-04T04:08:01.286Z,100.00
2023-02-04T04:10:31.781Z,100.00
2023-02-04T04:13:02.761Z,100.00
2023-02-04T04:15:33.617Z,100.00
2023-02-04T04:18:03.342Z,100.00
2023-02-04T04:20:33.545Z,100.00
2023-02-04T04:23:04.771Z,100.00
2023-02-04T04:25:37.180Z,100.00
2023-02-04T04:28:09.023Z,100.00
2023-02-04T04:30:45.990Z,100.00
2023-02-04T04:33:18.370Z,100.00
2023-02-04T04:35:53.351Z,100.00
2023-02-04T04:38:31.188Z,100.00
2023-02-04T04:41:00.796Z,100.00
2023-02-04T04:43:28.948Z,100.00
2023-02-04T04:45:56.275Z,100.00
2023-02-04T04:48:26.190Z,100.00
2023-02-04T04:50:55.354Z,100.00
2023-02-04T04:53:27.039Z,100.00
2023-02-04T04:56:02.088Z,100.00
2023-02-04T04:58:31.774Z,100.00
2023-02-04T05:01:01.566Z,100.00
2023-02-04T05:03:30.784Z,100.00
2023-02-04T05:05:59.234Z,100.00
2023-02-04T05:08:27.827Z,100.00
2023-02-04T05:10:57.467Z,100.00
2023-02-04T05:13:25.474Z,100.00
2023-02-04T05:15:53.144Z,100.00
2023-02-04T05:18:23.735Z,100.00
2023-02-04T05:20:59.942Z,100.00
2023-02-04T05:23:35.788Z,100.00
2023-02-04T05:26:05.957Z,100.00
2023-02-04T05:28:41.490Z,100.00
2023-02-04T05:31:11.446Z,100.00
2023-02-04T05:33:39.186Z,100.00
2023-02-04T05:36:20.181Z,100.00
2023-02-04T05:38:53.931Z,100.00
2023-02-04T05:41:25.614Z,100.00
2023-02-04T05:44:05.898Z,100.00
2023-02-04T05:46:35.329Z,100.00
2023-02-04T05:49:04.013Z,100.00
2023-02-04T05:51:33.637Z,100.00
2023-02-04T05:54:02.731Z,100.00
2023-02-04T05:56:31.830Z,100.00
2023-02-04T05:58:59.522Z,100.00
2023-02-04T06:01:32.427Z,100.00
2023-02-04T06:04:05.652Z,100.00
2023-02-04T06:06:43.435Z,100.00
2023-02-04T06:09:19.434Z,100.00
2023-02-04T06:11:58.017Z,100.00
2023-02-04T06:14:30.607Z,100.00
2023-02-04T06:17:08.781Z,100.00
2023-02-04T06:19:47.576Z,100.00
2023-02-04T06:22:19.853Z,100.00
2023-02-04T06:25:25.966Z,100.00
2023-02-04T06:27:55.467Z,100.00
2023-02-04T06:30:31.201Z,100.00
2023-02-04T06:33:07.924Z,100.00
2023-02-04T06:35:35.581Z,100.00
2023-02-04T06:38:10.879Z,100.00
2023-02-04T06:40:40.907Z,100.00
2023-02-04T06:43:10.553Z,100.00
2023-02-04T06:45:48.133Z,100.00
2023-02-04T06:48:29.297Z,100.00
2023-02-04T06:51:13.173Z,100.00
2023-02-04T06:53:46.165Z,100.00
2023-02-04T06:56:16.671Z,100.00
2023-02-04T06:58:47.054Z,100.00
2023-02-04T07:01:16.077Z,100.00
2023-02-04T07:03:45.761Z,100.00
2023-02-04T07:06:14.420Z,100.00
2023-02-04T07:11:30.658Z,100.00
2023-02-04T07:14:02.956Z,100.00
2023-02-04T07:16:38.806Z,100.00
2023-02-04T07:19:08.176Z,100.00
2023-02-04T07:22:00.928Z,100.00
2023-02-04T07:24:34.461Z,100.00
2023-02-04T07:27:07.938Z,100.00
2023-02-04T07:29:45.174Z,100.00
2023-02-04T07:32:16.581Z,100.00
2023-02-04T07:34:51.824Z,100.00
2023-02-04T07:37:21.463Z,100.00
2023-02-04T07:39:57.011Z,100.00
2023-02-04T07:42:30.961Z,100.00
2023-02-04T07:45:13.359Z,100.00
2023-02-04T07:47:41.228Z,100.00
2023-02-04T07:50:13.820Z,100.00
2023-02-04T07:52:49.376Z,100.00
2023-02-04T07:55:19.210Z,100.00
2023-02-04T07:57:49.740Z,100.00
2023-02-04T08:00:29.067Z,100.00
2023-02-04T08:03:03.441Z,100.00
2023-02-04T08:05:38.838Z,100.00
2023-02-04T08:08:14.294Z,100.00
2023-02-04T08:10:43.146Z,100.00
2023-02-04T08:13:15.814Z,100.00
2023-02-04T08:15:49.049Z,100.00
2023-02-04T08:18:19.475Z,100.00
2023-02-04T08:20:49.222Z,100.00
2023-02-04T08:23:20.947Z,100.00
2023-02-04T08:25:51.592Z,100.00
2023-02-04T08:28:31.910Z,100.00
2023-02-04T08:31:02.241Z,100.00
2023-02-04T08:33:31.142Z,100.00
2023-02-04T08:36:01.633Z,100.00
2023-02-04T08:38:43.334Z,100.00
2023-02-04T08:41:26.518Z,100.00
2023-02-04T08:44:00.821Z,100.00
2023-02-04T08:46:42.592Z,100.00
2023-02-04T08:49:31.661Z,100.00
2023-02-04T08:52:00.682Z,100.00
2023-02-04T08:54:31.990Z,100.00
2023-02-04T08:57:05.281Z,100.00
2023-02-04T08:59:44.919Z,100.00
2023-02-04T09:02:13.868Z,100.00
2023-02-04T09:04:52.695Z,100.00
2023-02-04T09:07:26.282Z,100.00
2023-02-04T09:09:58.793Z,100.00
2023-02-04T09:12:39.239Z,100.00
2023-02-04T09:15:10.248Z,100.00
2023-02-04T09:17:41.071Z,100.00
2023-02-04T09:20:25.543Z,100.00
2023-02-04T09:22:57.319Z,100.00
2023-02-04T09:25:27.824Z,100.00
2023-02-04T09:28:07.640Z,100.00
2023-02-04T09:30:41.723Z,100.00
2023-02-04T09:33:22.130Z,100.00
2023-02-04T09:36:37.221Z,100.00
2023-02-04T09:39:19.413Z,100.00
2023-02-04T09:41:49.786Z,100.00
2023-02-04T09:44:33.356Z,100.00
2023-02-04T09:47:08.642Z,100.00
2023-02-04T09:49:44.561Z,100.00
2023-02-04T09:52:19.566Z,100.00
2023-02-04T09:55:01.550Z,100.00
2023-02-04T09:57:50.607Z,100.00
2023-02-04T10:00:28.451Z,100.00
2023-02-04T10:03:02.574Z,100.00
2023-02-04T10:05:37.574Z,100.00
2023-02-04T10:08:09.666Z,100.00
2023-02-04T10:10:48.554Z,100.00
2023-02-04T10:13:44.875Z,100.00
2023-02-04T10:16:36.281Z,100.00
2023-02-04T10:19:13.037Z,100.00
2023-02-04T10:21:48.846Z,100.00
2023-02-04T10:24:38.984Z,100.00
2023-02-04T10:27:37.630Z,100.00
2023-02-04T10:30:49.590Z,100.00
2023-02-04T10:36:44.477Z,100.00
2023-02-04T10:39:23.351Z,100.00
2023-02-04T10:42:05.390Z,100.00
2023-02-04T10:44:39.447Z,100.00
2023-02-04T10:47:31.548Z,100.00
2023-02-04T10:50:19.146Z,100.00
2023-02-04T10:53:18.121Z,100.00
2023-02-04T10:56:01.039Z,100.00
2023-02-04T10:58:46.031Z,100.00
2023-02-04T11:01:28.936Z,100.00
2023-02-04T11:03:58.244Z,100.00
2023-02-04T11:06:35.280Z,100.00
2023-02-04T11:09:04.292Z,100.00
2023-02-04T11:11:49.556Z,100.00
2023-02-04T11:14:39.463Z,100.00
2023-02-04T11:17:36.290Z,100.00
2023-02-04T11:20:33.216Z,100.00
2023-02-04T11:23:29.589Z,100.00
2023-02-04T11:26:41.314Z,100.00
2023-02-04T11:29:40.138Z,100.00
2023-02-04T11:32:45.419Z,100.00
2023-02-04T11:35:35.462Z,100.00
2023-02-04T11:38:05.272Z,100.00
2023-02-04T11:40:46.429Z,100.00
2023-02-04T11:43:30.654Z,100.00
2023-02-04T11:46:18.500Z,100.00
2023-02-04T11:49:00.095Z,100.00
2023-02-04T11:52:01.571Z,100.00
2023-02-04T11:54:32.134Z,100.00
2023-02-04T11:57:20.570Z,100.00
2023-02-04T12:00:09.119Z,100.00
2023-02-04T12:03:31.992Z,100.00
2023-02-04T12:06:05.496Z,99.99
2023-02-04T12:08:39.213Z,100.00
2023-02-04T12:11:27.865Z,100.00
2023-02-04T12:14:26.054Z,100.00
2023-02-04T12:17:04.663Z,100.00
2023-02-04T12:19:42.827Z,100.00
2023-02-04T12:22:19.784Z,100.00
2023-02-04T12:30:22.257Z,100.00
2023-02-04T12:32:50.898Z,100.00
2023-02-04T12:35:26.748Z,100.00
2023-02-04T12:37:54.181Z,99.15
2023-02-04T12:40:24.531Z,100.00
2023-02-04T12:42:53.645Z,100.00
2023-02-04T12:45:27.519Z,99.10
2023-02-04T12:47:57.554Z,96.94
2023-02-04T12:50:28.696Z,97.91
2023-02-04T12:53:20.245Z,97.67
2023-02-04T12:56:02.372Z,100.00
2023-02-04T12:58:32.317Z,100.00
2023-02-04T13:04:01.669Z,100.00
2023-02-04T13:06:34.277Z,98.75
2023-02-04T13:09:09.531Z,98.47
2023-02-04T13:11:42.925Z,98.65
2023-02-04T13:17:03.447Z,98.83
2023-02-04T13:20:13.309Z,97.29
2023-02-04T13:23:02.115Z,98.01
2023-02-04T13:25:38.451Z,98.61
2023-02-04T13:28:43.059Z,97.01
2023-02-04T13:31:11.161Z,99.22
2023-02-04T13:33:42.396Z,98.11
2023-02-04T13:36:18.640Z,99.27
2023-02-04T13:44:48.118Z,99.26
2023-02-04T13:47:18.594Z,99.01
2023-02-04T13:50:07.233Z,97.89
2023-02-04T13:52:36.381Z,96.16
2023-02-04T13:55:56.459Z,98.35
2023-02-04T13:58:38.270Z,99.62
2023-02-04T14:01:23.542Z,100.00
2023-02-04T14:04:26.063Z,99.69
2023-02-04T14:10:23.098Z,100.00
2023-02-04T14:20:08.799Z,100.00
2023-02-04T14:34:22.588Z,100.00
2023-02-04T14:39:40.659Z,100.00
2023-02-04T14:42:42.740Z,100.00
2023-02-04T14:45:27.273Z,100.00
2023-02-04T14:54:39.632Z,100.00
2023-02-04T14:57:25.802Z,100.00
2023-02-04T15:00:09.017Z,100.00
2023-02-04T15:03:18.144Z,100.00
2023-02-04T15:05:48.865Z,100.00
2023-02-04T15:08:37.202Z,100.00
2023-02-04T15:11:54.058Z,100.00
2023-02-04T15:14:55.789Z,100.00
2023-02-04T15:17:54.750Z,100.00
2023-02-04T15:24:06.560Z,100.00
2023-02-04T15:27:02.507Z,100.00
2023-02-04T15:30:53.018Z,100.00
2023-02-04T15:35:13.777Z,100.00
2023-02-04T15:45:49.152Z,100.00
2023-02-04T15:48:50.461Z,100.00
2023-02-04T15:51:21.487Z,100.00
2023-02-04T15:53:50.565Z,100.00
2023-02-04T15:59:17.817Z,100.00
2023-02-04T16:01:52.080Z,100.00
2023-02-04T16:07:45.881Z,100.00
2023-02-04T16:10:25.256Z,100.00
2023-02-04T16:16:01.403Z,100.00
2023-02-04T16:18:32.353Z,100.00
2023-02-04T16:21:04.873Z,100.00
2023-02-04T16:23:35.478Z,100.00
2023-02-04T16:26:12.279Z,100.00
2023-02-04T16:28:40.477Z,100.00
2023-02-04T16:31:23.388Z,100.00
2023-02-04T16:33:57.253Z,100.00
2023-02-04T16:36:27.144Z,100.00
2023-02-04T16:38:59.700Z,100.00
2023-02-04T16:41:40.708Z,100.00
2023-02-04T16:44:24.038Z,100.00
2023-02-04T16:47:02.958Z,100.00
2023-02-04T16:49:49.696Z,100.00
2023-02-04T16:52:19.801Z,100.00
2023-02-04T16:54:48.856Z,100.00
2023-02-04T16:57:22.285Z,100.00
2023-02-04T16:59:52.881Z,100.00
2023-02-04T17:02:33.851Z,100.00
2023-02-04T17:05:02.669Z,100.00
2023-02-04T17:07:39.928Z,100.00
2023-02-04T17:13:04.391Z,100.00
2023-02-04T17:15:41.609Z,100.00
2023-02-04T17:18:30.076Z,100.00
2023-02-04T17:21:17.818Z,100.00
2023-02-04T17:23:57.634Z,100.00
2023-02-04T17:26:52.761Z,100.00
2023-02-04T17:29:41.929Z,100.00
2023-02-04T17:32:19.847Z,100.00
2023-02-04T17:34:58.631Z,100.00
2023-02-04T17:37:31.475Z,100.00
2023-02-04T17:40:14.750Z,100.00
2023-02-04T17:42:48.294Z,100.00
2023-02-04T17:48:11.214Z,100.00
2023-02-04T17:50:46.839Z,100.00
2023-02-04T17:53:25.471Z,100.00
2023-02-04T17:56:05.392Z,100.00
2023-02-04T18:01:27.031Z,100.00
2023-02-04T18:04:05.205Z,100.00
2023-02-04T18:06:55.708Z,100.00
2023-02-04T18:12:19.089Z,100.00
2023-02-04T18:14:59.985Z,100.00
2023-02-04T18:17:53.504Z,100.00
2023-02-04T18:20:26.375Z,100.00
2023-02-04T18:23:06.473Z,100.00
2023-02-04T18:25:44.820Z,100.00
2023-02-04T18:28:51.333Z,100.00
2023-02-04T18:32:05.100Z,100.00
2023-02-04T18:44:12.729Z,100.00
2023-02-04T18:46:50.296Z,100.00
2023-02-04T18:49:55.077Z,100.00
2023-02-04T18:52:54.505Z,100.00
2023-02-04T18:58:53.402Z,100.00
2023-02-04T19:01:48.465Z,100.00
2023-02-04T19:07:46.653Z,100.00
2023-02-04T19:10:42.094Z,100.00
2023-02-04T19:16:42.967Z,100.00
2023-02-04T19:20:17.707Z,100.00
2023-02-04T19:26:33.791Z,100.00
2023-02-04T19:29:44.705Z,100.00
2023-02-04T19:33:05.416Z,100.00
2023-02-04T19:36:07.213Z,100.00
2023-02-04T19:39:12.555Z,100.00
2023-02-04T19:44:47.429Z,100.00
2023-02-04T19:47:45.436Z,100.00
2023-02-04T19:53:30.201Z,100.00
2023-02-04T19:56:11.690Z,100.00
2023-02-04T19:58:50.353Z,100.00
2023-02-04T20:01:23.334Z,100.00
2023-02-04T20:03:53.304Z,100.00
2023-02-04T20:06:45.865Z,100.00
2023-02-04T20:09:38.707Z,100.00
2023-02-04T20:12:29.503Z,100.00
2023-02-04T20:15:13.749Z,100.00
2023-02-04T20:17:51.711Z,100.00
2023-02-04T20:20:29.632Z,100.00
2023-02-04T20:23:31.618Z,100.00
2023-02-04T20:26:03.939Z,100.00
2023-02-04T20:28:57.929Z,100.00
2023-02-04T20:34:35.768Z,100.00
2023-02-04T20:37:09.614Z,100.00
2023-02-04T20:40:01.062Z,100.00
2023-02-04T20:43:05.979Z,100.00
2023-02-04T20:46:07.623Z,100.00
2023-02-04T20:48:49.111Z,100.00
2023-02-04T20:51:29.989Z,100.00
2023-02-04T20:54:04.427Z,100.00
2023-02-04T20:56:48.256Z,100.00
2023-02-04T20:59:36.895Z,100.00
2023-02-04T21:02:28.893Z,100.00
2023-02-04T21:04:57.210Z,100.00
2023-02-04T21:07:51.308Z,100.00
2023-02-04T21:10:39.006Z,100.00
2023-02-04T21:14:21.503Z,100.00
2023-02-04T21:16:59.999Z,100.00
2023-02-04T21:19:50.301Z,100.00
2023-02-04T21:22:34.460Z,100.00
2023-02-04T21:25:15.128Z,100.00
2023-02-04T21:28:14.565Z,100.00
2023-02-04T21:31:00.727Z,100.00
2023-02-04T21:39:28.057Z,100.00
2023-02-04T21:42:12.431Z,100.00
2023-02-04T21:45:18.007Z,100.00
2023-02-04T21:48:26.961Z,100.00
2023-02-04T21:51:50.669Z,100.00
2023-02-04T21:54:29.342Z,100.00
2023-02-04T21:57:10.603Z,100.00
2023-02-04T22:00:13.543Z,100.00
2023-02-04T22:02:52.836Z,100.00
2023-02-04T22:09:03.254Z,100.00
2023-02-04T22:11:41.903Z,100.00
2023-02-04T22:14:10.337Z,100.00
2023-02-04T22:16:50.563Z,100.00
2023-02-04T22:19:40.424Z,100.00
2023-02-04T22:22:11.220Z,100.00
2023-02-04T22:24:55.498Z,100.00
2023-02-04T22:27:30.552Z,100.00
2023-02-04T22:30:24.641Z,100.00
2023-02-04T22:33:02.044Z,100.00
2023-02-04T22:35:43.029Z,100.00
2023-02-04T22:38:25.593Z,100.00
2023-02-04T22:40:59.620Z,100.00
2023-02-04T22:43:32.456Z,100.00
2023-02-04T22:46:02.661Z,100.00
2023-02-04T22:48:34.244Z,100.00
2023-02-04T22:51:06.777Z,100.00
2023-02-04T22:53:46.287Z,100.00
2023-02-04T22:56:15.163Z,100.00
2023-02-04T23:02:20.353Z,100.00
2023-02-04T23:05:03.065Z,100.00
2023-02-04T23:07:32.749Z,100.00
2023-02-04T23:10:18.234Z,100.00
2023-02-04T23:12:56.623Z,100.00
2023-02-04T23:15:40.298Z,100.00
2023-02-04T23:18:12.272Z,100.00
2023-02-04T23:20:41.381Z,100.00
2023-02-04T23:23:25.741Z,100.00
2023-02-04T23:25:58.357Z,100.00
2023-02-04T23:28:40.547Z,100.00
2023-02-04T23:31:30.267Z,100.00
2023-02-04T23:34:06.736Z,100.00
2023-02-04T23:42:05.103Z,100.00
2023-02-04T23:44:35.394Z,100.00
2023-02-04T23:47:06.158Z,100.00
2023-02-04T23:49:37.773Z,100.00
2023-02-04T23:52:17.430Z,100.00
2023-02-04T23:54:49.949Z,100.00
2023-02-04T23:57:26.064Z,100.00
